.
WxDataArchive / Data Records for 2011-05-16
2011-05-15 May 2011 2011-05-17

Data Records for Monday, 16 May 2011

Time	Temp	Chill	HIndex	Humid	Dewpt	 Wind 	HiWind	WindDir	Rain 	Barom 
-----	----	-----	------	-----	-----	------	------	-------	-----	----- 
00:00	41.8	41.8	41.8	90	39.1	1	5	135	0.01	29.858 
00:05	41.8	41.8	41.8	90	39.1	1	6	135	0.00	29.858 
00:10	41.8	41.8	41.8	90	39.1	0	5	68	0.00	29.858 
00:15	41.8	41.8	41.8	90	39.1	0	2	135	0.00	29.861 
00:20	41.8	41.8	41.8	90	39.1	0	1	135	0.00	29.861 
00:25	41.8	41.8	41.8	90	39.1	0	2	248	0.00	29.861 
00:30	41.6	41.6	41.6	90	38.9	0	2	248	0.00	29.859 
00:35	41.6	41.6	41.6	90	38.9	0	2	248	0.00	29.859 
00:40	41.6	41.6	41.6	90	38.9	0	1	248	0.00	29.859 
00:45	41.6	41.6	41.6	90	38.9	0	4	90	0.00	29.860 
00:50	41.8	41.8	41.8	90	39.1	0	3	90	0.00	29.860 
00:55	41.8	41.8	41.8	89	38.8	0	1	338	0.00	29.860 
01:00	41.8	41.8	41.8	89	38.8	0	1	338	0.00	29.860 
01:05	41.8	41.8	41.8	89	38.8	0	1	338	0.00	29.860 
01:10	41.8	41.8	41.8	89	38.8	0	1	338	0.00	29.860 
01:15	41.9	41.9	41.9	89	38.9	0	1	338	0.00	29.861 
01:20	41.9	41.9	41.9	88	38.6	0	1	338	0.00	29.861 
01:25	41.9	41.9	41.9	88	38.6	0	0	---	0.00	29.861 
01:30	41.9	41.9	41.9	88	38.6	0	1	338	0.00	29.858 
01:35	41.9	41.9	41.9	88	38.6	0	3	158	0.00	29.858 
01:40	41.9	41.9	41.9	88	38.6	0	1	158	0.00	29.858 
01:45	41.9	41.9	41.9	87	38.3	0	2	180	0.00	29.856 
01:50	41.9	41.9	41.9	87	38.3	0	0	---	0.00	29.856 
01:55	41.9	41.9	41.9	87	38.3	0	1	180	0.00	29.856 
02:00	42.1	42.1	42.1	86	38.2	0	0	---	0.00	29.855 
02:05	42.1	42.1	42.1	85	37.9	0	1	180	0.00	29.855 
02:10	42.2	42.2	42.2	84	37.7	0	1	180	0.00	29.855 
02:15	42.2	42.2	42.2	84	37.7	0	1	180	0.00	29.853 
02:20	42.3	42.3	42.3	84	37.8	0	0	---	0.00	29.853 
02:25	42.3	42.3	42.3	83	37.5	0	1	180	0.00	29.853 
02:30	42.5	42.5	42.5	83	37.7	0	0	---	0.00	29.847 
02:35	42.5	42.5	42.5	82	37.4	0	0	---	0.00	29.847 
02:40	42.5	42.5	42.5	83	37.7	0	0	---	0.00	29.847 
02:45	42.5	42.5	42.5	82	37.4	0	1	180	0.00	29.841 
02:50	42.6	42.6	42.6	81	37.2	0	1	180	0.00	29.841 
02:55	42.8	42.8	42.8	81	37.4	0	1	180	0.00	29.841 
03:00	42.8	42.8	42.8	79	36.7	0	6	135	0.00	29.839 
03:05	42.9	42.9	42.9	79	36.8	0	1	135	0.00	29.839 
03:10	42.9	42.9	42.9	79	36.8	0	1	135	0.00	29.839 
03:15	43.1	43.1	43.1	79	37.0	0	1	135	0.00	29.838 
03:20	43.1	43.1	43.1	79	37.0	0	0	---	0.00	29.838 
03:25	43.1	43.1	43.1	79	37.0	0	2	135	0.00	29.838 
03:30	43.1	43.1	43.1	78	36.7	0	0	---	0.00	29.836 
03:35	43.1	43.1	43.1	78	36.7	0	0	---	0.00	29.836 
03:40	43.1	43.1	43.1	78	36.7	0	1	135	0.00	29.836 
03:45	43.1	43.1	43.1	78	36.7	0	0	---	0.00	29.837 
03:50	43.1	43.1	43.1	76	36.1	0	1	135	0.00	29.837 
03:55	43.2	43.2	43.2	76	36.2	0	0	---	0.00	29.837 
04:00	43.2	43.2	43.2	76	36.2	0	2	248	0.00	29.838 
04:05	43.2	43.2	43.2	76	36.2	0	0	---	0.00	29.838 
04:10	43.3	43.3	43.3	75	35.9	0	1	248	0.00	29.838 
04:15	43.3	43.3	43.3	75	35.9	0	1	248	0.00	29.838 
04:20	43.5	43.5	43.5	75	36.1	0	1	248	0.00	29.838 
04:25	43.3	43.3	43.3	75	35.9	0	1	248	0.00	29.838 
04:30	43.5	43.5	43.5	75	36.1	0	2	248	0.00	29.836 
04:35	43.3	43.3	43.3	75	35.9	0	1	248	0.00	29.836 
04:40	43.3	43.3	43.3	75	35.9	0	1	248	0.00	29.836 
04:45	43.3	43.3	43.3	74	35.6	0	1	248	0.00	29.840 
04:50	43.3	43.3	43.3	74	35.6	0	1	248	0.00	29.840 
04:55	43.3	43.3	43.3	74	35.6	0	0	---	0.00	29.840 
05:00	43.3	43.3	43.3	75	35.9	0	1	248	0.00	29.840 
05:05	43.3	43.3	43.3	74	35.6	0	0	---	0.00	29.840 
05:10	43.2	43.2	43.2	74	35.5	0	2	248	0.00	29.840 
05:15	43.2	43.2	43.2	74	35.5	0	0	---	0.00	29.841 
05:20	43.2	43.2	43.2	76	36.2	0	0	---	0.00	29.841 
05:25	43.1	43.1	43.1	75	35.7	0	1	248	0.00	29.841 
05:30	42.9	42.9	42.9	75	35.5	0	1	248	0.00	29.842 
05:35	42.8	42.8	42.8	75	35.4	0	0	---	0.00	29.842 
05:40	42.8	42.8	42.8	74	35.1	0	1	248	0.00	29.842 
05:45	42.6	42.6	42.6	74	34.9	0	1	248	0.00	29.842 
05:50	42.6	42.6	42.6	74	34.9	0	1	248	0.00	29.842 
05:55	42.5	42.5	42.5	74	34.8	0	1	248	0.00	29.842 
06:00	42.5	42.5	42.5	73	34.5	0	2	248	0.00	29.842 
06:05	42.3	42.3	42.3	73	34.3	0	1	248	0.00	29.842 
06:10	42.3	42.3	42.3	73	34.3	0	2	248	0.00	29.842 
06:15	42.3	42.3	42.3	73	34.3	0	3	248	0.00	29.848 
06:20	42.3	42.3	42.3	73	34.3	0	1	248	0.00	29.848 
06:25	42.3	42.3	42.3	72	33.9	0	2	248	0.00	29.848 
06:30	42.3	42.3	42.3	72	33.9	0	3	248	0.00	29.854 
06:35	42.5	42.5	42.5	72	34.1	0	1	248	0.00	29.854 
06:40	42.3	42.3	42.3	72	33.9	0	2	248	0.00	29.854 
06:45	42.3	42.3	42.3	71	33.6	0	3	248	0.00	29.858 
06:50	42.3	42.3	42.3	72	33.9	0	2	45	0.00	29.858 
06:55	42.3	42.3	42.3	72	33.9	0	2	45	0.00	29.858 
07:00	42.3	42.3	42.3	71	33.6	0	3	338	0.00	29.858 
07:05	42.5	42.5	42.5	71	33.8	0	2	292	0.00	29.858 
07:10	42.6	42.6	42.6	71	33.9	0	1	292	0.00	29.858 
07:15	42.8	42.8	42.8	70	33.7	0	2	292	0.00	29.860 
07:20	42.9	42.9	42.9	70	33.8	0	3	292	0.00	29.860 
07:25	42.9	42.9	42.9	69	33.4	0	3	292	0.00	29.860 
07:30	42.9	42.9	42.9	70	33.8	1	3	292	0.00	29.862 
07:35	42.9	42.9	42.9	69	33.4	0	2	292	0.00	29.862 
07:40	42.9	42.9	42.9	70	33.8	0	3	292	0.00	29.862 
07:45	42.9	42.9	42.9	69	33.4	0	3	292	0.00	29.867 
07:50	42.9	42.9	42.9	69	33.4	0	3	292	0.00	29.867 
07:55	42.8	42.8	42.8	69	33.3	0	2	292	0.00	29.867 
08:00	42.8	42.8	42.8	70	33.7	0	3	292	0.00	29.873 
08:05	42.9	42.9	42.9	70	33.8	0	3	292	0.00	29.873 
08:10	43.5	43.5	43.5	70	34.4	0	3	292	0.00	29.873 
08:15	44.2	44.2	44.2	69	34.7	1	5	292	0.00	29.874 
08:20	44.6	44.6	44.6	67	34.3	1	3	292	0.00	29.874 
08:25	45.1	45.1	45.1	67	34.8	0	3	292	0.00	29.874 
08:30	45.5	45.5	45.5	67	35.2	0	2	68	0.00	29.876 
08:35	45.7	45.7	45.7	65	34.6	1	4	45	0.00	29.876 
08:40	45.7	45.7	45.7	65	34.6	1	5	248	0.00	29.876 
08:45	45.5	45.5	45.5	65	34.4	1	2	248	0.00	29.877 
08:50	45.4	45.4	45.4	65	34.3	1	4	270	0.00	29.877 
08:55	45.2	45.2	45.2	65	34.1	1	5	270	0.00	29.877 
09:00	44.9	44.9	44.9	65	33.9	1	4	22	0.00	29.883 
09:05	44.6	44.6	44.6	66	34.0	0	3	22	0.00	29.883 
09:10	44.3	44.3	44.3	66	33.7	0	2	22	0.00	29.883 
09:15	44.2	44.2	44.2	68	34.3	0	1	22	0.00	29.891 
09:20	44.2	44.2	44.2	68	34.3	1	2	248	0.00	29.891 
09:25	44.3	44.3	44.3	67	34.0	1	4	45	0.00	29.891 
09:30	44.5	44.5	44.5	68	34.6	1	3	22	0.00	29.893 
09:35	45.1	45.1	45.1	69	35.5	1	4	248	0.00	29.893 
09:40	46.0	46.0	46.0	67	35.7	1	4	315	0.00	29.893 
09:45	46.2	46.2	46.2	67	35.9	1	3	338	0.00	29.897 
09:50	46.8	46.8	46.8	66	36.0	1	4	315	0.00	29.897 
09:55	47.6	47.6	47.6	65	36.4	1	4	315	0.00	29.897 
10:00	47.9	47.9	47.9	64	36.3	1	3	90	0.00	29.893 
10:05	48.0	48.0	48.0	64	36.4	1	3	225	0.00	29.893 
10:10	47.7	47.7	47.7	63	35.7	1	4	68	0.00	29.893 
10:15	47.4	47.4	47.4	65	36.2	0	4	112	0.00	29.900 
10:20	47.1	47.1	47.1	65	35.9	0	2	135	0.00	29.900 
10:25	47.0	47.0	47.0	67	36.6	1	6	338	0.00	29.900 
10:30	47.1	47.1	47.1	68	37.1	0	2	225	0.00	29.899 
10:35	47.3	47.3	47.3	68	37.3	1	3	270	0.00	29.899 
10:40	47.7	47.7	47.7	68	37.7	0	3	270	0.00	29.899 
10:45	48.6	48.6	48.6	70	39.3	1	4	90	0.00	29.897 
10:50	50.1	50.1	50.1	66	39.2	2	6	90	0.00	29.897 
10:55	50.5	50.5	50.5	63	38.4	1	4	45	0.00	29.897 
11:00	50.8	50.8	50.8	63	38.7	1	6	68	0.00	29.894 
11:05	51.0	51.0	51.0	63	38.9	1	3	292	0.00	29.894 
11:10	51.6	51.6	51.6	64	39.8	1	5	90	0.00	29.894 
11:15	51.3	51.3	51.3	63	39.1	0	3	45	0.00	29.899 
11:20	51.0	51.0	51.0	64	39.3	0	3	90	0.00	29.899 
11:25	51.6	51.6	51.6	62	39.0	1	6	68	0.00	29.899 
11:30	52.6	52.6	52.6	67	42.0	1	4	22	0.00	29.900 
11:35	53.1	53.1	53.1	62	40.4	1	6	315	0.00	29.900 
11:40	53.1	53.1	53.1	61	40.0	1	7	112	0.00	29.900 
11:45	53.3	53.3	53.3	64	41.4	2	9	90	0.00	29.901 
11:50	53.2	53.2	53.2	62	40.5	1	6	112	0.00	29.901 
11:55	52.8	52.8	52.8	63	40.6	1	6	315	0.00	29.901 
12:00	52.9	52.9	52.9	63	40.7	1	6	90	0.00	29.903 
12:05	53.1	53.1	53.1	62	40.4	2	7	112	0.00	29.903 
12:10	53.3	53.3	53.3	63	41.0	2	7	90	0.00	29.903 
12:15	53.3	53.3	53.3	63	41.0	1	4	112	0.00	29.902 
12:20	53.3	53.3	53.3	62	40.6	2	7	135	0.00	29.902 
12:25	53.3	53.3	53.3	62	40.6	1	6	45	0.00	29.902 
12:30	53.3	53.3	53.3	62	40.6	1	4	270	0.00	29.901 
12:35	54.2	54.2	54.2	63	41.9	1	3	22	0.00	29.901 
12:40	54.5	54.5	54.5	59	40.5	1	6	270	0.00	29.901 
12:45	54.7	54.7	54.7	59	40.7	1	5	270	0.00	29.896 
12:50	54.7	54.7	54.7	60	41.1	2	6	90	0.00	29.896 
12:55	55.3	55.3	55.3	61	42.1	1	5	112	0.00	29.896 
13:00	56.0	56.0	56.0	56	40.5	1	3	45	0.00	29.884 
13:05	56.3	56.3	56.3	53	39.4	2	7	90	0.00	29.884 
13:10	56.9	56.9	56.9	58	42.3	2	6	45	0.00	29.884 
13:15	57.0	57.0	57.0	55	41.0	1	3	90	0.00	29.884 
13:20	56.5	56.5	56.5	54	40.1	2	7	90	0.00	29.884 
13:25	56.0	56.0	56.0	53	39.1	1	4	0	0.00	29.884 
13:30	55.9	55.9	55.9	56	40.4	1	6	90	0.00	29.885 
13:35	56.0	56.0	56.0	53	39.1	1	6	68	0.00	29.885 
13:40	55.4	55.4	55.4	52	38.1	1	7	315	0.00	29.885 
13:45	55.6	55.6	55.6	54	39.2	1	3	22	0.00	29.888 
13:50	56.2	56.2	56.2	55	40.2	1	4	315	0.00	29.888 
13:55	56.0	56.0	56.0	51	38.1	1	4	0	0.00	29.888 
14:00	56.2	56.2	56.2	52	38.8	1	6	45	0.00	29.883 
14:05	55.6	55.6	55.6	51	37.8	1	4	315	0.00	29.883 
14:10	55.9	55.9	55.9	55	40.0	1	5	112	0.00	29.883 
14:15	56.7	56.7	56.7	50	38.3	2	7	45	0.00	29.881 
14:20	56.9	56.9	56.9	50	38.5	1	5	202	0.00	29.881 
14:25	56.6	56.6	56.6	50	38.2	1	4	292	0.00	29.881 
14:30	56.7	56.7	56.7	50	38.3	1	4	68	0.00	29.882 
14:35	57.2	57.2	57.2	50	38.7	1	5	180	0.00	29.882 
14:40	57.6	57.6	57.6	48	38.1	2	6	112	0.00	29.882 
14:45	57.0	57.0	57.0	49	38.0	1	4	0	0.00	29.881 
14:50	56.6	56.6	56.6	50	38.2	1	4	90	0.00	29.881 
14:55	56.5	56.5	56.5	53	39.6	1	3	90	0.00	29.881 
15:00	57.2	57.2	57.2	54	40.7	1	4	0	0.00	29.880 
15:05	57.5	57.5	57.5	50	39.0	1	10	292	0.00	29.880 
15:10	58.0	58.0	58.0	49	38.9	1	10	338	0.00	29.880 
15:15	58.3	58.3	58.3	49	39.2	1	3	338	0.00	29.880 
15:20	58.6	58.6	58.6	49	39.5	1	4	68	0.00	29.880 
15:25	58.3	58.3	58.3	48	38.7	1	3	315	0.00	29.880 
15:30	57.3	57.3	57.3	50	38.8	1	2	248	0.00	29.883 
15:35	57.0	57.0	57.0	49	38.0	0	3	292	0.00	29.883 
15:40	57.0	57.0	57.0	47	37.0	1	5	112	0.00	29.883 
15:45	57.2	57.2	57.2	49	38.2	2	9	90	0.00	29.887 
15:50	56.9	56.9	56.9	48	37.4	1	7	112	0.00	29.887 
15:55	56.6	56.6	56.6	49	37.7	2	8	90	0.00	29.887 
16:00	56.5	56.5	56.5	47	36.5	1	5	22	0.00	29.891 
16:05	56.5	56.5	56.5	48	37.0	1	4	0	0.00	29.891 
16:10	56.5	56.5	56.5	48	37.0	1	4	0	0.00	29.891 
16:15	56.3	56.3	56.3	50	37.9	1	7	22	0.00	29.890 
16:20	56.0	56.0	56.0	50	37.6	1	3	68	0.00	29.890 
16:25	56.0	56.0	56.0	50	37.6	1	5	270	0.00	29.890 
16:30	56.2	56.2	56.2	48	36.8	1	6	90	0.00	29.893 
16:35	56.5	56.5	56.5	49	37.6	1	6	90	0.00	29.893 
16:40	56.5	56.5	56.5	47	36.5	1	10	0	0.00	29.893 
16:45	56.6	56.6	56.6	47	36.6	1	4	112	0.00	29.890 
16:50	56.6	56.6	56.6	48	37.1	1	4	90	0.00	29.890 
16:55	56.5	56.5	56.5	50	38.1	1	4	22	0.00	29.890 
17:00	56.2	56.2	56.2	49	37.3	0	2	112	0.00	29.891 
17:05	56.0	56.0	56.0	50	37.6	1	7	90	0.00	29.891 
17:10	56.0	56.0	56.0	48	36.6	1	4	90	0.00	29.891 
17:15	56.2	56.2	56.2	52	38.8	1	4	68	0.00	29.893 
17:20	56.3	56.3	56.3	49	37.4	2	7	90	0.00	29.893 
17:25	56.2	56.2	56.2	50	37.8	1	4	22	0.00	29.893 
17:30	55.9	55.9	55.9	49	37.0	1	5	90	0.00	29.898 
17:35	55.6	55.6	55.6	51	37.8	1	6	90	0.00	29.898 
17:40	55.3	55.3	55.3	51	37.5	1	5	112	0.00	29.898 
17:45	55.1	55.1	55.1	52	37.8	2	5	90	0.00	29.902 
17:50	55.0	55.0	55.0	53	38.2	2	6	90	0.00	29.902 
17:55	54.7	54.7	54.7	54	38.4	3	7	112	0.00	29.902 
18:00	54.5	54.5	54.5	52	37.2	2	7	112	0.00	29.913 
18:05	54.2	54.2	54.2	54	37.9	1	4	112	0.00	29.913 
18:10	53.9	53.9	53.9	53	37.2	3	9	90	0.00	29.913 
18:15	53.8	53.8	53.8	53	37.1	2	5	112	0.00	29.916 
18:20	53.6	53.6	53.6	54	37.4	1	6	112	0.00	29.916 
18:25	53.6	53.6	53.6	55	37.8	1	4	112	0.00	29.916 
18:30	53.5	53.5	53.5	55	37.7	1	3	135	0.00	29.920 
18:35	53.5	53.5	53.5	56	38.2	0	3	135	0.00	29.920 
18:40	53.3	53.3	53.3	55	37.5	1	5	90	0.00	29.920 
18:45	53.3	53.3	53.3	55	37.5	1	5	112	0.00	29.929 
18:50	53.2	53.2	53.2	57	38.4	0	4	112	0.00	29.929 
18:55	52.9	52.9	52.9	58	38.5	1	3	112	0.00	29.929 
19:00	52.8	52.8	52.8	57	38.0	1	3	112	0.00	29.932 
19:05	52.6	52.6	52.6	58	38.2	0	2	68	0.00	29.932 
19:10	52.5	52.5	52.5	57	37.7	0	4	68	0.00	29.932 
19:15	52.5	52.5	52.5	58	38.2	0	2	112	0.00	29.931 
19:20	52.3	52.3	52.3	59	38.4	0	1	112	0.00	29.931 
19:25	52.3	52.3	52.3	61	39.3	0	3	112	0.00	29.931 
19:30	52.2	52.2	52.2	60	38.7	1	3	158	0.00	29.938 
19:35	52.0	52.0	52.0	62	39.4	0	2	158	0.00	29.938 
19:40	51.9	51.9	51.9	62	39.3	0	3	158	0.00	29.938 
19:45	51.7	51.7	51.7	60	38.3	1	4	68	0.00	29.944 
19:50	51.4	51.4	51.4	58	37.1	1	4	45	0.00	29.944 
19:55	51.4	51.4	51.4	58	37.1	1	5	90	0.00	29.944 
20:00	51.3	51.3	51.3	58	37.0	1	5	90	0.00	29.946 
20:05	51.1	51.1	51.1	57	36.4	1	5	135	0.00	29.946 
20:10	50.8	50.8	50.8	55	35.2	2	7	90	0.00	29.946 
20:15	50.7	50.7	50.7	55	35.1	2	5	112	0.00	29.948 
20:20	50.4	50.4	50.4	59	36.6	2	7	135	0.00	29.948 
20:25	49.5	49.5	49.5	61	36.6	2	9	112	0.00	29.948 
20:30	48.9	48.9	48.9	63	36.9	2	4	112	0.00	29.958 
20:35	48.5	48.5	48.5	64	36.9	2	9	135	0.00	29.958 
20:40	48.0	48.0	48.0	67	37.6	1	5	90	0.00	29.958 
20:45	47.7	47.7	47.7	69	38.0	1	5	90	0.00	29.956 
20:50	47.6	47.6	47.6	72	39.0	0	3	90	0.00	29.956 
20:55	47.3	47.3	47.3	73	39.1	1	4	68	0.00	29.956 
21:00	47.0	47.0	47.0	74	39.1	0	2	68	0.00	29.959 
21:05	46.8	46.8	46.8	76	39.6	0	2	68	0.00	29.959 
21:10	46.7	46.7	46.7	78	40.2	0	4	135	0.01	29.959 
21:15	46.4	46.4	46.4	79	40.2	0	4	90	0.00	29.956 
21:20	46.1	46.1	46.1	80	40.3	0	3	0	0.00	29.956 
21:25	45.8	45.8	45.8	81	40.3	0	4	292	0.00	29.956 
21:30	45.5	45.5	45.5	81	40.0	0	1	292	0.00	29.959 
21:35	45.2	45.2	45.2	82	40.0	0	3	292	0.01	29.959 
21:40	44.9	44.9	44.9	83	40.1	0	2	292	0.00	29.959 
21:45	44.8	44.8	44.8	83	40.0	0	2	292	0.00	29.961 
21:50	44.6	44.6	44.6	83	39.8	0	1	292	0.00	29.961 
21:55	44.5	44.5	44.5	83	39.7	0	0	---	0.00	29.961 
22:00	44.5	44.5	44.5	84	40.0	0	0	---	0.00	29.953 
22:05	44.5	44.5	44.5	84	40.0	0	0	---	0.00	29.953 
22:10	44.5	44.5	44.5	84	40.0	0	0	---	0.00	29.953 
22:15	44.5	44.5	44.5	85	40.3	0	0	---	0.00	29.949 
22:20	44.5	44.5	44.5	85	40.3	0	0	---	0.00	29.949 
22:25	44.5	44.5	44.5	85	40.3	0	0	---	0.00	29.949 
22:30	44.6	44.6	44.6	85	40.4	0	0	---	0.00	29.954 
22:35	44.6	44.6	44.6	84	40.1	0	0	---	0.00	29.954 
22:40	44.8	44.8	44.8	84	40.3	0	0	---	0.00	29.954 
22:45	44.8	44.8	44.8	83	40.0	0	2	292	0.00	29.955 
22:50	45.1	45.1	45.1	82	39.9	0	4	292	0.00	29.955 
22:55	45.2	45.2	45.2	81	39.7	0	1	292	0.00	29.955 
23:00	45.4	45.4	45.4	81	39.9	0	3	112	0.00	29.951 
23:05	45.7	45.7	45.7	80	39.9	0	3	135	0.00	29.951 
23:10	45.8	45.8	45.8	79	39.7	1	9	90	0.00	29.951 
23:15	46.0	46.0	46.0	79	39.9	1	8	45	0.00	29.953 
23:20	46.0	46.0	46.0	81	40.5	1	6	135	0.00	29.953 
23:25	45.7	45.7	45.7	84	41.1	1	4	90	0.00	29.953 
23:30	45.4	45.4	45.4	85	41.2	0	3	135	0.00	29.956 
23:35	45.2	45.2	45.2	86	41.3	1	5	90	0.00	29.956 
23:40	45.1	45.1	45.1	87	41.5	0	2	90	0.00	29.956 
23:45	44.9	44.9	44.9	87	41.3	2	5	90	0.00	29.957 
23:50	44.8	44.8	44.8	88	41.5	2	5	90	0.00	29.957 
23:55	44.6	44.6	44.6	88	41.3	1	9	112	0.00	29.957 

CoCoRaHS
IN-AL-39
A2 Web Hosting
Creative Commons License
GoDaddy
search engine by freefind advanced

loaded 2018-11-13 02:39:49 • last modified 2010-11-18 10:43:29
Privacy PolicyDisclaimer
• wx.awcolley.com is powered by PmWiki v.2002016 •
• all content (unless otherwise noted) © 2018 A W Colley